createdAt,value
2023-03-29T00:02:31.266Z,99414.40
2023-03-29T00:05:09.858Z,99416.40
2023-03-29T00:07:46.436Z,99418.80
2023-03-29T00:10:24.214Z,99420.20
2023-03-29T00:13:00.817Z,99425.20
2023-03-29T00:15:37.145Z,99423.00
2023-03-29T00:18:13.463Z,99425.80
2023-03-29T00:20:55.152Z,99426.60
2023-03-29T00:23:31.493Z,99428.00
2023-03-29T00:26:08.796Z,99434.20
2023-03-29T00:28:45.807Z,99432.00
2023-03-29T00:31:22.960Z,99435.20
2023-03-29T00:33:59.646Z,99435.40
2023-03-29T00:36:40.434Z,99433.40
2023-03-29T00:39:16.862Z,99431.20
2023-03-29T00:41:54.277Z,99431.80
2023-03-29T00:45:06.149Z,99429.00
2023-03-29T00:47:49.305Z,99433.40
2023-03-29T00:50:32.154Z,99434.40
2023-03-29T00:53:14.873Z,99439.00
2023-03-29T00:55:57.275Z,99441.20
2023-03-29T00:58:43.588Z,99438.40
2023-03-29T01:01:28.796Z,99436.80
2023-03-29T01:04:18.172Z,99433.40
2023-03-29T01:07:04.162Z,99432.60
2023-03-29T01:09:45.979Z,99423.20
2023-03-29T01:12:25.520Z,99424.80
2023-03-29T01:15:07.926Z,99423.20
2023-03-29T01:17:50.324Z,99418.80
2023-03-29T01:20:46.334Z,99420.80
2023-03-29T01:23:52.751Z,99420.60
2023-03-29T01:26:43.809Z,99419.60
2023-03-29T01:29:29.543Z,99416.40
2023-03-29T01:32:13.058Z,99413.00
2023-03-29T01:34:57.933Z,99412.00
2023-03-29T01:37:42.733Z,99409.20
2023-03-29T01:40:20.015Z,99403.20
2023-03-29T01:43:07.253Z,99403.80
2023-03-29T01:45:52.871Z,99406.20
2023-03-29T01:48:37.660Z,99407.00
2023-03-29T01:51:24.970Z,99407.80
2023-03-29T01:54:08.916Z,99407.80
2023-03-29T01:56:50.799Z,99404.20
2023-03-29T01:59:33.441Z,99405.20
2023-03-29T02:02:16.079Z,99401.20
2023-03-29T02:04:57.769Z,99404.80
2023-03-29T02:07:38.200Z,99404.80
2023-03-29T02:10:18.758Z,99410.40
2023-03-29T02:12:55.211Z,99409.20
2023-03-29T02:15:31.978Z,99409.00
2023-03-29T02:18:09.458Z,99408.20
2023-03-29T02:20:50.804Z,99416.00
2023-03-29T02:23:36.276Z,99414.60
2023-03-29T02:26:14.500Z,99415.80
2023-03-29T02:28:51.732Z,99412.60
2023-03-29T02:31:34.909Z,99411.40
2023-03-29T02:34:22.454Z,99409.20
2023-03-29T02:37:04.204Z,99410.00
2023-03-29T02:39:43.561Z,99411.20
2023-03-29T02:42:22.980Z,99411.60
2023-03-29T02:45:03.937Z,99410.20
2023-03-29T02:47:46.727Z,99412.40
2023-03-29T02:50:24.979Z,99410.80
2023-03-29T02:53:11.637Z,99417.00
2023-03-29T02:55:48.678Z,99410.80
2023-03-29T02:58:26.928Z,99411.00
2023-03-29T03:01:07.745Z,99411.20
2023-03-29T03:03:45.387Z,99412.20
2023-03-29T03:06:22.352Z,99410.80
2023-03-29T03:09:00.151Z,99414.00
2023-03-29T03:11:40.508Z,99416.00
2023-03-29T03:14:19.291Z,99416.00
2023-03-29T03:16:55.800Z,99417.20
2023-03-29T03:19:32.216Z,99420.00
2023-03-29T03:22:10.070Z,99421.00
2023-03-29T03:24:46.970Z,99423.20
2023-03-29T03:27:23.294Z,99424.60
2023-03-29T03:29:59.671Z,99423.00
2023-03-29T03:33:29.281Z,99421.60
2023-03-29T03:36:26.146Z,99423.60
2023-03-29T03:39:03.191Z,99423.00
2023-03-29T03:41:39.596Z,99424.20
2023-03-29T03:44:15.839Z,99420.80
2023-03-29T03:46:52.824Z,99423.20
2023-03-29T03:49:29.433Z,99420.20
2023-03-29T03:52:06.792Z,99419.40
2023-03-29T03:54:44.160Z,99421.20
2023-03-29T03:57:41.414Z,99420.60
2023-03-29T04:00:23.471Z,99420.80
2023-03-29T04:03:07.197Z,99422.00
2023-03-29T04:05:47.468Z,99423.00
2023-03-29T04:08:24.574Z,99423.20
2023-03-29T04:11:23.762Z,99430.20
2023-03-29T04:14:00.253Z,99429.00
2023-03-29T04:17:27.350Z,99432.00
2023-03-29T04:20:12.019Z,99428.80
2023-03-29T04:22:49.902Z,99426.80
2023-03-29T04:25:26.410Z,99423.00
2023-03-29T04:28:09.936Z,99427.20
2023-03-29T04:30:55.068Z,99424.60
2023-03-29T04:33:51.703Z,99418.20
2023-03-29T04:36:28.628Z,99418.20
2023-03-29T04:39:07.917Z,99419.40
2023-03-29T04:41:46.195Z,99424.80
2023-03-29T04:44:44.203Z,99421.00
2023-03-29T04:47:22.510Z,99418.20
2023-03-29T04:50:06.559Z,99420.80
2023-03-29T04:52:51.526Z,99419.00
2023-03-29T04:55:28.080Z,99417.20
2023-03-29T04:58:10.250Z,99419.00
2023-03-29T05:00:49.685Z,99421.80
2023-03-29T05:03:40.447Z,99419.40
2023-03-29T05:06:25.538Z,99421.20
2023-03-29T05:09:02.537Z,99419.20
2023-03-29T05:11:43.420Z,99419.60
2023-03-29T05:14:21.062Z,99419.60
2023-03-29T05:16:57.455Z,99421.20
2023-03-29T05:19:34.144Z,99424.20
2023-03-29T05:22:10.433Z,99422.60
2023-03-29T05:24:47.040Z,99425.00
2023-03-29T05:27:27.938Z,99427.20
2023-03-29T05:30:13.839Z,99426.40
2023-03-29T05:32:59.409Z,99426.20
2023-03-29T05:35:36.713Z,99422.80
2023-03-29T05:38:14.722Z,99421.00
2023-03-29T05:40:51.440Z,99429.60
2023-03-29T05:43:46.798Z,99436.60
2023-03-29T05:46:23.324Z,99439.60
2023-03-29T05:49:02.495Z,99438.00
2023-03-29T05:52:34.341Z,99442.00
2023-03-29T05:55:13.201Z,99437.00
2023-03-29T05:57:49.759Z,99435.20
2023-03-29T06:00:30.153Z,99437.00
2023-03-29T06:03:21.730Z,99435.40
2023-03-29T06:06:05.130Z,99441.00
2023-03-29T06:08:43.049Z,99441.80
2023-03-29T06:11:28.126Z,99442.20
2023-03-29T06:14:50.278Z,99443.40
2023-03-29T06:17:38.208Z,99440.80
2023-03-29T06:20:17.201Z,99444.00
2023-03-29T06:22:57.136Z,99445.20
2023-03-29T06:25:34.251Z,99451.20
2023-03-29T06:28:12.033Z,99449.60
2023-03-29T06:30:50.119Z,99440.40
2023-03-29T06:33:26.982Z,99447.00
2023-03-29T06:36:23.958Z,99448.80
2023-03-29T06:39:01.079Z,99452.80
2023-03-29T06:41:56.271Z,99452.20
2023-03-29T06:57:02.006Z,99460.60
2023-03-29T07:01:39.356Z,99461.40
2023-03-29T07:16:39.967Z,99469.00
2023-03-29T07:21:13.421Z,99468.00
2023-03-29T07:29:28.829Z,99469.00
2023-03-29T07:34:04.154Z,99468.00
2023-03-29T07:38:38.265Z,99470.20
2023-03-29T07:43:16.134Z,99477.40
2023-03-29T07:52:59.131Z,99474.00
2023-03-29T07:57:35.028Z,99471.80
2023-03-29T08:02:13.450Z,99473.80
2023-03-29T08:11:49.562Z,99463.40
2023-03-29T08:27:51.352Z,99458.40
2023-03-29T08:42:56.498Z,99451.40
2023-03-29T08:46:14.962Z,99454.60
2023-03-29T08:48:58.437Z,99450.80
2023-03-29T08:51:41.583Z,99453.20
2023-03-29T09:05:01.930Z,99448.80
2023-03-29T09:09:38.368Z,99441.80
2023-03-29T09:14:21.072Z,99433.40
2023-03-29T09:23:56.127Z,99428.40
2023-03-29T09:28:41.297Z,99422.00
2023-03-29T09:42:23.518Z,99409.60
2023-03-29T09:45:08.663Z,99412.40
2023-03-29T09:48:00.320Z,99413.60
2023-03-29T09:50:50.437Z,99406.80
2023-03-29T09:53:37.035Z,99402.40
2023-03-29T09:56:59.872Z,99399.20
2023-03-29T09:59:37.161Z,99397.20
2023-03-29T10:02:27.712Z,99395.00
2023-03-29T10:05:10.297Z,99391.40
2023-03-29T10:07:54.573Z,99390.80
2023-03-29T10:10:36.910Z,99390.00
2023-03-29T10:13:23.089Z,99392.40
2023-03-29T10:16:09.612Z,99387.80
2023-03-29T10:18:51.333Z,99384.60
2023-03-29T10:21:32.735Z,99386.40
2023-03-29T10:24:11.990Z,99386.60
2023-03-29T10:26:49.473Z,99384.20
2023-03-29T10:29:27.921Z,99381.40
2023-03-29T10:32:14.621Z,99384.40
2023-03-29T10:34:52.601Z,99382.60
2023-03-29T10:37:31.602Z,99381.80
2023-03-29T10:40:17.420Z,99384.80
2023-03-29T10:42:59.198Z,99377.40
2023-03-29T10:45:41.159Z,99370.60
2023-03-29T10:48:20.461Z,99374.20
2023-03-29T10:51:02.319Z,99372.20
2023-03-29T10:53:40.225Z,99366.40
2023-03-29T10:56:35.684Z,99365.60
2023-03-29T10:59:33.820Z,99360.20
2023-03-29T11:03:32.744Z,99357.80
2023-03-29T11:06:21.001Z,99359.60
2023-03-29T11:09:08.233Z,99351.20
2023-03-29T11:12:15.996Z,99345.60
2023-03-29T11:15:11.350Z,99349.20
2023-03-29T11:18:11.150Z,99346.60
2023-03-29T11:20:55.995Z,99342.40
2023-03-29T11:23:51.322Z,99338.40
2023-03-29T11:26:36.026Z,99335.60
2023-03-29T11:29:23.042Z,99337.60
2023-03-29T11:32:14.207Z,99333.40
2023-03-29T11:35:12.344Z,99330.00
2023-03-29T11:38:03.219Z,99324.00
2023-03-29T11:40:56.693Z,99325.00
2023-03-29T11:43:39.891Z,99321.80
2023-03-29T11:46:24.712Z,99317.80
2023-03-29T11:49:11.296Z,99311.20
2023-03-29T11:51:55.793Z,99308.40
2023-03-29T11:54:41.124Z,99303.00
2023-03-29T11:57:27.694Z,99298.40
2023-03-29T12:00:12.486Z,99294.40
2023-03-29T12:02:56.917Z,99295.20
2023-03-29T12:05:42.551Z,99298.40
2023-03-29T12:08:25.718Z,99297.60
2023-03-29T12:11:16.203Z,99291.60
2023-03-29T12:13:59.350Z,99287.40
2023-03-29T12:16:45.500Z,99290.80
2023-03-29T12:19:28.137Z,99288.20
2023-03-29T12:22:08.034Z,99277.40
2023-03-29T12:24:50.212Z,99279.80
2023-03-29T12:27:35.945Z,99272.20
2023-03-29T12:30:57.006Z,99270.20
2023-03-29T12:34:31.108Z,99274.00
2023-03-29T12:37:33.021Z,99267.40
2023-03-29T12:40:37.217Z,99269.00
2023-03-29T12:44:13.521Z,99267.80
2023-03-29T12:47:43.888Z,99262.20
2023-03-29T12:50:34.400Z,99256.80
2023-03-29T12:53:24.112Z,99258.00
2023-03-29T12:56:18.314Z,99255.00
2023-03-29T12:59:27.752Z,99254.20
2023-03-29T13:02:28.368Z,99245.20
2023-03-29T13:05:07.749Z,99241.60
2023-03-29T13:07:53.548Z,99237.60
2023-03-29T13:10:53.142Z,99233.80
2023-03-29T13:13:36.314Z,99231.80
2023-03-29T13:16:20.570Z,99229.60
2023-03-29T13:19:27.021Z,99228.80
2023-03-29T13:22:22.182Z,99229.00
2023-03-29T13:25:33.963Z,99230.00
2023-03-29T13:28:24.030Z,99225.80
2023-03-29T13:31:14.224Z,99219.20
2023-03-29T13:34:08.353Z,99210.60
2023-03-29T13:37:06.835Z,99207.40
2023-03-29T13:39:54.013Z,99205.00
2023-03-29T13:42:45.535Z,99202.20
2023-03-29T13:45:35.423Z,99206.00
2023-03-29T13:48:29.528Z,99201.20
2023-03-29T13:51:25.310Z,99195.00
2023-03-29T13:54:14.358Z,99195.40
2023-03-29T13:57:06.813Z,99192.40
2023-03-29T13:59:58.438Z,99189.80
2023-03-29T14:02:47.342Z,99187.00
2023-03-29T14:05:33.134Z,99180.40
2023-03-29T14:08:22.869Z,99180.20
2023-03-29T14:11:04.516Z,99175.00
2023-03-29T14:13:41.697Z,99178.60
2023-03-29T14:16:18.486Z,99178.20
2023-03-29T14:18:55.499Z,99175.20
2023-03-29T14:21:32.314Z,99174.60
2023-03-29T14:24:14.033Z,99169.40
2023-03-29T14:26:53.706Z,99171.60
2023-03-29T14:29:35.952Z,99170.00
2023-03-29T14:32:21.801Z,99164.00
2023-03-29T14:34:58.834Z,99165.60
2023-03-29T14:37:35.681Z,99165.20
2023-03-29T14:40:22.020Z,99163.60
2023-03-29T14:42:59.353Z,99164.60
2023-03-29T14:45:36.078Z,99165.40
2023-03-29T14:48:15.871Z,99162.00
2023-03-29T14:50:53.372Z,99165.00
2023-03-29T14:53:32.388Z,99163.80
2023-03-29T14:56:13.944Z,99159.00
2023-03-29T14:58:55.374Z,99163.60
2023-03-29T15:01:33.458Z,99158.80
2023-03-29T15:04:12.971Z,99157.60
2023-03-29T15:06:52.522Z,99160.00
2023-03-29T15:09:38.545Z,99154.20
2023-03-29T15:12:20.846Z,99152.40
2023-03-29T15:14:58.024Z,99149.20
2023-03-29T15:17:51.055Z,99143.60
2023-03-29T15:20:35.332Z,99146.80
2023-03-29T15:23:26.651Z,99148.60
2023-03-29T15:26:16.742Z,99145.80
2023-03-29T15:29:03.182Z,99145.40
2023-03-29T15:31:42.832Z,99141.60
2023-03-29T15:34:30.949Z,99143.40
2023-03-29T15:37:08.202Z,99139.60
2023-03-29T15:39:46.809Z,99141.00
2023-03-29T15:42:23.596Z,99138.60
2023-03-29T15:45:05.164Z,99139.60
2023-03-29T15:47:41.550Z,99130.20
2023-03-29T15:50:18.687Z,99129.80
2023-03-29T15:53:08.530Z,99130.60
2023-03-29T15:55:53.054Z,99124.80
2023-03-29T15:58:34.737Z,99121.80
2023-03-29T16:01:34.622Z,99124.20
2023-03-29T16:04:16.497Z,99121.20
2023-03-29T16:06:55.904Z,99124.00
2023-03-29T16:09:32.494Z,99123.00
2023-03-29T16:12:09.347Z,99121.80
2023-03-29T16:14:45.857Z,99129.80
2023-03-29T16:17:22.343Z,99128.60
2023-03-29T16:19:58.889Z,99125.60
2023-03-29T16:22:38.514Z,99130.80
2023-03-29T16:25:22.870Z,99126.20
2023-03-29T16:27:59.445Z,99122.60
2023-03-29T16:30:38.440Z,99118.00
2023-03-29T16:33:16.066Z,99118.20
2023-03-29T16:35:52.633Z,99120.20
2023-03-29T16:38:29.565Z,99118.00
2023-03-29T16:41:07.258Z,99117.80
2023-03-29T16:43:44.888Z,99120.40
2023-03-29T16:46:21.518Z,99123.20
2023-03-29T16:49:00.302Z,99114.00
2023-03-29T16:51:36.710Z,99113.20
2023-03-29T16:54:13.036Z,99110.00
2023-03-29T16:56:49.882Z,99104.20
2023-03-29T16:59:27.242Z,99104.60
2023-03-29T17:02:03.769Z,99101.40
2023-03-29T17:04:40.492Z,99105.80
2023-03-29T17:07:17.521Z,99105.60
2023-03-29T17:09:54.793Z,99105.60
2023-03-29T17:12:31.561Z,99109.20
2023-03-29T17:15:10.563Z,99105.40
2023-03-29T17:17:47.484Z,99108.60
2023-03-29T17:20:24.879Z,99104.00
2023-03-29T17:23:01.288Z,99101.80
2023-03-29T17:25:37.934Z,99100.20
2023-03-29T17:28:14.793Z,99100.80
2023-03-29T17:30:52.006Z,99097.60
2023-03-29T17:33:28.769Z,99096.20
2023-03-29T17:36:06.407Z,99099.00
2023-03-29T17:38:44.045Z,99107.20
2023-03-29T17:41:21.565Z,99115.20
2023-03-29T17:43:58.358Z,99116.00
2023-03-29T17:46:34.874Z,99112.20
2023-03-29T17:49:11.866Z,99117.00
2023-03-29T17:51:48.750Z,99117.80
2023-03-29T17:54:26.164Z,99116.20
2023-03-29T17:57:02.892Z,99116.60
2023-03-29T17:59:40.029Z,99119.20
2023-03-29T18:02:22.865Z,99113.60
2023-03-29T18:05:01.793Z,99111.00
2023-03-29T18:07:40.158Z,99109.80
2023-03-29T18:10:17.970Z,99112.20
2023-03-29T18:12:54.686Z,99116.00
2023-03-29T18:15:31.474Z,99121.60
2023-03-29T18:18:08.824Z,99124.40
2023-03-29T18:20:47.240Z,99122.40
2023-03-29T18:23:24.480Z,99121.40
2023-03-29T18:26:07.777Z,99124.20
2023-03-29T18:28:46.705Z,99121.40
2023-03-29T18:31:24.055Z,99123.60
2023-03-29T18:34:01.202Z,99126.60
2023-03-29T18:36:38.317Z,99124.00
2023-03-29T18:39:15.062Z,99133.60
2023-03-29T18:41:52.153Z,99135.20
2023-03-29T18:44:30.763Z,99140.00
2023-03-29T18:47:08.376Z,99136.20
2023-03-29T18:49:45.550Z,99135.60
2023-03-29T18:52:23.417Z,99140.00
2023-03-29T18:55:01.052Z,99136.80
2023-03-29T18:57:38.790Z,99129.80
2023-03-29T19:00:18.307Z,99125.20
2023-03-29T19:02:55.757Z,99124.60
2023-03-29T19:05:33.362Z,99121.60
2023-03-29T19:08:10.966Z,99115.60
2023-03-29T19:10:48.697Z,99114.00
2023-03-29T19:13:26.482Z,99114.80
2023-03-29T19:16:04.487Z,99117.20
2023-03-29T19:18:42.210Z,99115.80
2023-03-29T19:21:19.336Z,99118.40
2023-03-29T19:23:56.798Z,99121.80
2023-03-29T19:26:34.549Z,99118.20
2023-03-29T19:29:11.796Z,99118.60
2023-03-29T19:31:48.868Z,99121.40
2023-03-29T19:34:26.760Z,99116.80
2023-03-29T19:37:04.088Z,99120.20
2023-03-29T19:39:41.519Z,99116.40
2023-03-29T19:42:18.890Z,99115.00
2023-03-29T19:44:55.833Z,99113.60
2023-03-29T19:47:33.070Z,99105.80
2023-03-29T19:50:13.965Z,99098.80
2023-03-29T19:52:51.357Z,99101.20
2023-03-29T19:55:28.477Z,99102.60
2023-03-29T19:58:05.375Z,99105.40
2023-03-29T20:00:43.232Z,99107.00
2023-03-29T20:03:24.899Z,99106.00
2023-03-29T20:06:02.878Z,99108.00
2023-03-29T20:08:41.435Z,99108.80
2023-03-29T20:11:24.180Z,99107.40
2023-03-29T20:14:03.122Z,99109.40
2023-03-29T20:16:41.752Z,99111.00
2023-03-29T20:19:18.837Z,99116.80
2023-03-29T20:21:57.818Z,99121.40
2023-03-29T20:24:35.177Z,99116.00
2023-03-29T20:27:12.457Z,99113.00
2023-03-29T20:29:50.488Z,99112.40
2023-03-29T20:32:27.313Z,99116.40
2023-03-29T20:35:04.209Z,99116.00
2023-03-29T20:37:41.189Z,99108.60
2023-03-29T20:40:20.941Z,99106.80
2023-03-29T20:42:57.801Z,99102.40
2023-03-29T20:45:51.652Z,99093.60
2023-03-29T20:48:31.488Z,99095.00
2023-03-29T20:51:10.237Z,99090.20
2023-03-29T20:53:46.731Z,99089.20
2023-03-29T20:56:26.346Z,99086.80
2023-03-29T20:59:04.039Z,99085.20
2023-03-29T21:01:41.287Z,99081.20
2023-03-29T21:04:17.839Z,99082.00
2023-03-29T21:06:56.290Z,99077.20
2023-03-29T21:09:35.540Z,99072.60
2023-03-29T21:12:13.517Z,99071.40
2023-03-29T21:14:50.842Z,99068.60
2023-03-29T21:17:28.145Z,99061.60
2023-03-29T21:20:08.504Z,99056.20
2023-03-29T21:22:46.695Z,99054.20
2023-03-29T21:25:24.282Z,99051.00
2023-03-29T21:28:01.789Z,99052.80
2023-03-29T21:30:39.524Z,99055.20
2023-03-29T21:33:16.980Z,99057.60
2023-03-29T21:35:55.675Z,99054.60
2023-03-29T21:38:33.239Z,99058.80
2023-03-29T21:41:14.295Z,99063.80
2023-03-29T21:43:51.865Z,99062.80
2023-03-29T21:46:29.253Z,99061.80
2023-03-29T21:49:06.712Z,99058.00
2023-03-29T21:51:43.985Z,99056.60
2023-03-29T21:54:21.390Z,99061.40
2023-03-29T21:56:58.710Z,99063.80
2023-03-29T21:59:36.356Z,99065.00
2023-03-29T22:02:13.853Z,99055.20
2023-03-29T22:04:51.911Z,99050.60
2023-03-29T22:07:29.256Z,99055.20
2023-03-29T22:10:08.238Z,99048.20
2023-03-29T22:12:45.998Z,99048.80
2023-03-29T22:15:24.453Z,99049.40
2023-03-29T22:18:02.183Z,99048.80
2023-03-29T22:20:40.321Z,99051.40
2023-03-29T22:23:18.487Z,99046.40
2023-03-29T22:25:55.877Z,99052.00
2023-03-29T22:28:33.083Z,99052.00
2023-03-29T22:31:13.372Z,99054.40
2023-03-29T22:33:51.328Z,99052.80
2023-03-29T22:36:31.928Z,99050.20
2023-03-29T22:39:10.930Z,99051.60
2023-03-29T22:41:48.197Z,99047.20
2023-03-29T22:44:25.671Z,99044.60
2023-03-29T22:47:03.181Z,99044.40
2023-03-29T22:49:40.621Z,99050.80
2023-03-29T22:52:17.901Z,99049.40
2023-03-29T22:54:55.157Z,99043.80
2023-03-29T22:57:32.885Z,99035.20
2023-03-29T23:00:13.725Z,99028.80
2023-03-29T23:02:51.625Z,99024.00
2023-03-29T23:05:29.004Z,99017.80
2023-03-29T23:08:07.051Z,99009.80
2023-03-29T23:10:44.466Z,99011.40
2023-03-29T23:13:26.040Z,99006.20
2023-03-29T23:16:06.147Z,99004.60
2023-03-29T23:18:43.350Z,99005.00
2023-03-29T23:21:21.131Z,99006.40
2023-03-29T23:23:58.445Z,99008.20
2023-03-29T23:26:35.763Z,99007.80
2023-03-29T23:29:13.739Z,99009.60
2023-03-29T23:31:51.069Z,99004.40
2023-03-29T23:34:28.781Z,99003.40
2023-03-29T23:37:06.168Z,98998.20
2023-03-29T23:39:43.445Z,98994.40
2023-03-29T23:42:21.129Z,98991.00
2023-03-29T23:44:58.460Z,98987.40
2023-03-29T23:47:36.936Z,98982.00
2023-03-29T23:50:16.965Z,98981.00
2023-03-29T23:52:54.987Z,98975.00
2023-03-29T23:55:32.342Z,98972.40
2023-03-29T23:58:09.915Z,98968.00
